sensor_id;sensor_type;location;lat;lon;timestamp;P1;durP1;ratioP1;P2;durP2;ratioP2
23995;SDS011;12207;50.076;8.848;2023-08-31T00:00:42;385.92;;;86.43;;
23995;SDS011;12207;50.076;8.848;2023-08-31T00:03:09;376.20;;;85.28;;
23995;SDS011;12207;50.076;8.848;2023-08-31T00:05:37;373.25;;;87.30;;
23995;SDS011;12207;50.076;8.848;2023-08-31T00:08:05;392.65;;;87.38;;
23995;SDS011;12207;50.076;8.848;2023-08-31T00:10:32;375.15;;;85.68;;
23995;SDS011;12207;50.076;8.848;2023-08-31T00:13:00;387.73;;;86.78;;
23995;SDS011;12207;50.076;8.848;2023-08-31T00:15:26;384.15;;;86.10;;
23995;SDS011;12207;50.076;8.848;2023-08-31T00:17:53;374.77;;;85.60;;
23995;SDS011;12207;50.076;8.848;2023-08-31T00:20:20;384.52;;;87.57;;
23995;SDS011;12207;50.076;8.848;2023-08-31T00:22:46;386.05;;;87.20;;
23995;SDS011;12207;50.076;8.848;2023-08-31T00:25:13;379.90;;;86.45;;
23995;SDS011;12207;50.076;8.848;2023-08-31T00:27:39;381.90;;;85.68;;
23995;SDS011;12207;50.076;8.848;2023-08-31T00:30:09;377.85;;;87.07;;
23995;SDS011;12207;50.076;8.848;2023-08-31T00:32:39;376.65;;;85.50;;
23995;SDS011;12207;50.076;8.848;2023-08-31T00:35:07;384.20;;;85.45;;
23995;SDS011;12207;50.076;8.848;2023-08-31T00:37:34;387.83;;;89.35;;
23995;SDS011;12207;50.076;8.848;2023-08-31T00:40:00;379.08;;;87.30;;
23995;SDS011;12207;50.076;8.848;2023-08-31T00:42:29;390.17;;;87.57;;
23995;SDS011;12207;50.076;8.848;2023-08-31T00:44:56;386.08;;;87.15;;
23995;SDS011;12207;50.076;8.848;2023-08-31T00:47:22;377.58;;;86.75;;
23995;SDS011;12207;50.076;8.848;2023-08-31T00:49:48;380.38;;;85.85;;
23995;SDS011;12207;50.076;8.848;2023-08-31T00:52:14;379.45;;;86.47;;
23995;SDS011;12207;50.076;8.848;2023-08-31T00:54:42;379.10;;;86.35;;
23995;SDS011;12207;50.076;8.848;2023-08-31T00:57:11;378.65;;;86.60;;
23995;SDS011;12207;50.076;8.848;2023-08-31T00:59:37;393.83;;;88.55;;
23995;SDS011;12207;50.076;8.848;2023-08-31T01:02:05;379.88;;;87.25;;
23995;SDS011;12207;50.076;8.848;2023-08-31T01:04:44;375.08;;;86.00;;
23995;SDS011;12207;50.076;8.848;2023-08-31T01:07:31;376.13;;;86.07;;
23995;SDS011;12207;50.076;8.848;2023-08-31T01:13:00;379.00;;;84.95;;
23995;SDS011;12207;50.076;8.848;2023-08-31T01:15:36;380.48;;;85.80;;
23995;SDS011;12207;50.076;8.848;2023-08-31T01:18:03;382.25;;;85.63;;
23995;SDS011;12207;50.076;8.848;2023-08-31T01:20:39;386.33;;;86.22;;
23995;SDS011;12207;50.076;8.848;2023-08-31T01:23:20;406.77;;;90.77;;
23995;SDS011;12207;50.076;8.848;2023-08-31T01:25:53;391.38;;;86.20;;
23995;SDS011;12207;50.076;8.848;2023-08-31T01:28:23;386.85;;;86.95;;
23995;SDS011;12207;50.076;8.848;2023-08-31T01:30:49;375.05;;;85.57;;
23995;SDS011;12207;50.076;8.848;2023-08-31T01:33:15;381.67;;;86.25;;
23995;SDS011;12207;50.076;8.848;2023-08-31T01:35:42;384.02;;;86.05;;
23995;SDS011;12207;50.076;8.848;2023-08-31T01:38:18;379.75;;;87.43;;
23995;SDS011;12207;50.076;8.848;2023-08-31T01:41:06;378.02;;;86.28;;
23995;SDS011;12207;50.076;8.848;2023-08-31T01:43:35;388.17;;;86.18;;
23995;SDS011;12207;50.076;8.848;2023-08-31T01:46:04;380.52;;;86.53;;
23995;SDS011;12207;50.076;8.848;2023-08-31T01:48:31;404.00;;;87.53;;
23995;SDS011;12207;50.076;8.848;2023-08-31T01:51:12;389.73;;;88.32;;
23995;SDS011;12207;50.076;8.848;2023-08-31T01:53:38;402.77;;;88.10;;
23995;SDS011;12207;50.076;8.848;2023-08-31T01:56:04;382.20;;;85.68;;
23995;SDS011;12207;50.076;8.848;2023-08-31T01:58:30;384.40;;;84.88;;
23995;SDS011;12207;50.076;8.848;2023-08-31T02:00:57;388.95;;;86.60;;
23995;SDS011;12207;50.076;8.848;2023-08-31T02:03:23;388.02;;;86.32;;
23995;SDS011;12207;50.076;8.848;2023-08-31T02:05:49;387.75;;;86.38;;
23995;SDS011;12207;50.076;8.848;2023-08-31T02:08:15;382.08;;;87.03;;
23995;SDS011;12207;50.076;8.848;2023-08-31T02:10:44;380.08;;;86.00;;
23995;SDS011;12207;50.076;8.848;2023-08-31T02:13:13;390.67;;;85.85;;
23995;SDS011;12207;50.076;8.848;2023-08-31T02:15:41;377.73;;;85.03;;
23995;SDS011;12207;50.076;8.848;2023-08-31T02:18:07;376.20;;;85.55;;
23995;SDS011;12207;50.076;8.848;2023-08-31T02:20:33;391.15;;;86.78;;
23995;SDS011;12207;50.076;8.848;2023-08-31T02:22:59;381.95;;;87.32;;
23995;SDS011;12207;50.076;8.848;2023-08-31T02:25:26;378.35;;;86.22;;
23995;SDS011;12207;50.076;8.848;2023-08-31T02:27:53;381.67;;;86.25;;
23995;SDS011;12207;50.076;8.848;2023-08-31T02:30:19;372.77;;;85.00;;
23995;SDS011;12207;50.076;8.848;2023-08-31T02:32:46;370.25;;;83.82;;
23995;SDS011;12207;50.076;8.848;2023-08-31T02:35:12;387.35;;;84.43;;
23995;SDS011;12207;50.076;8.848;2023-08-31T02:37:38;387.33;;;87.60;;
23995;SDS011;12207;50.076;8.848;2023-08-31T02:40:05;378.45;;;84.80;;
23995;SDS011;12207;50.076;8.848;2023-08-31T02:42:33;383.17;;;84.72;;
23995;SDS011;12207;50.076;8.848;2023-08-31T02:44:59;375.25;;;84.20;;
23995;SDS011;12207;50.076;8.848;2023-08-31T02:47:25;382.33;;;84.50;;
23995;SDS011;12207;50.076;8.848;2023-08-31T02:49:51;379.08;;;85.63;;
23995;SDS011;12207;50.076;8.848;2023-08-31T02:52:17;382.27;;;86.90;;
23995;SDS011;12207;50.076;8.848;2023-08-31T02:54:43;386.73;;;86.43;;
23995;SDS011;12207;50.076;8.848;2023-08-31T02:57:09;381.95;;;85.85;;
23995;SDS011;12207;50.076;8.848;2023-08-31T02:59:35;387.50;;;86.60;;
23995;SDS011;12207;50.076;8.848;2023-08-31T03:02:02;380.30;;;86.57;;
23995;SDS011;12207;50.076;8.848;2023-08-31T03:04:29;374.83;;;86.72;;
23995;SDS011;12207;50.076;8.848;2023-08-31T03:06:55;384.50;;;86.78;;
23995;SDS011;12207;50.076;8.848;2023-08-31T03:09:22;384.88;;;87.22;;
23995;SDS011;12207;50.076;8.848;2023-08-31T03:11:48;387.48;;;88.22;;
23995;SDS011;12207;50.076;8.848;2023-08-31T03:14:14;389.27;;;87.53;;
23995;SDS011;12207;50.076;8.848;2023-08-31T03:16:40;379.02;;;86.13;;
23995;SDS011;12207;50.076;8.848;2023-08-31T03:19:06;383.52;;;85.78;;
23995;SDS011;12207;50.076;8.848;2023-08-31T03:21:32;386.35;;;86.05;;
23995;SDS011;12207;50.076;8.848;2023-08-31T03:23:59;371.77;;;84.40;;
23995;SDS011;12207;50.076;8.848;2023-08-31T03:26:24;377.88;;;85.30;;
23995;SDS011;12207;50.076;8.848;2023-08-31T03:28:50;378.95;;;84.32;;
23995;SDS011;12207;50.076;8.848;2023-08-31T03:31:17;374.27;;;84.75;;
23995;SDS011;12207;50.076;8.848;2023-08-31T03:33:43;401.17;;;86.93;;
23995;SDS011;12207;50.076;8.848;2023-08-31T03:36:09;377.45;;;85.80;;
23995;SDS011;12207;50.076;8.848;2023-08-31T03:38:35;391.55;;;89.25;;
23995;SDS011;12207;50.076;8.848;2023-08-31T03:41:02;397.23;;;87.15;;
23995;SDS011;12207;50.076;8.848;2023-08-31T03:43:28;391.90;;;88.03;;
23995;SDS011;12207;50.076;8.848;2023-08-31T03:45:55;380.20;;;87.88;;
23995;SDS011;12207;50.076;8.848;2023-08-31T03:48:22;382.02;;;86.85;;
23995;SDS011;12207;50.076;8.848;2023-08-31T03:50:50;379.40;;;86.30;;
23995;SDS011;12207;50.076;8.848;2023-08-31T03:53:17;385.45;;;87.93;;
23995;SDS011;12207;50.076;8.848;2023-08-31T03:55:43;396.52;;;88.97;;
23995;SDS011;12207;50.076;8.848;2023-08-31T03:58:10;372.67;;;84.97;;
23995;SDS011;12207;50.076;8.848;2023-08-31T04:00:37;390.85;;;87.32;;
23995;SDS011;12207;50.076;8.848;2023-08-31T04:03:03;384.17;;;87.63;;
23995;SDS011;12207;50.076;8.848;2023-08-31T04:05:33;379.63;;;86.60;;
23995;SDS011;12207;50.076;8.848;2023-08-31T04:08:02;383.10;;;87.28;;
23995;SDS011;12207;50.076;8.848;2023-08-31T04:10:29;386.35;;;86.32;;
23995;SDS011;12207;50.076;8.848;2023-08-31T04:12:57;375.42;;;87.00;;
23995;SDS011;12207;50.076;8.848;2023-08-31T04:15:23;379.30;;;85.75;;
23995;SDS011;12207;50.076;8.848;2023-08-31T04:17:49;380.33;;;85.93;;
23995;SDS011;12207;50.076;8.848;2023-08-31T04:20:15;371.00;;;85.40;;
23995;SDS011;12207;50.076;8.848;2023-08-31T04:22:42;394.17;;;86.95;;
23995;SDS011;12207;50.076;8.848;2023-08-31T04:25:08;383.55;;;85.97;;
23995;SDS011;12207;50.076;8.848;2023-08-31T04:27:35;381.73;;;86.18;;
23995;SDS011;12207;50.076;8.848;2023-08-31T04:30:04;381.10;;;85.32;;
23995;SDS011;12207;50.076;8.848;2023-08-31T04:32:31;378.00;;;84.95;;
23995;SDS011;12207;50.076;8.848;2023-08-31T04:34:57;374.85;;;85.88;;
23995;SDS011;12207;50.076;8.848;2023-08-31T04:37:24;388.25;;;87.93;;
23995;SDS011;12207;50.076;8.848;2023-08-31T04:39:50;387.67;;;85.70;;
23995;SDS011;12207;50.076;8.848;2023-08-31T04:42:18;378.15;;;85.85;;
23995;SDS011;12207;50.076;8.848;2023-08-31T04:44:45;393.15;;;88.20;;
23995;SDS011;12207;50.076;8.848;2023-08-31T04:47:11;378.85;;;86.35;;
23995;SDS011;12207;50.076;8.848;2023-08-31T04:49:37;380.88;;;86.15;;
23995;SDS011;12207;50.076;8.848;2023-08-31T04:52:03;386.02;;;88.13;;
23995;SDS011;12207;50.076;8.848;2023-08-31T04:54:30;377.55;;;85.95;;
23995;SDS011;12207;50.076;8.848;2023-08-31T04:56:56;381.85;;;86.80;;
23995;SDS011;12207;50.076;8.848;2023-08-31T04:59:23;386.38;;;87.53;;
23995;SDS011;12207;50.076;8.848;2023-08-31T05:01:52;378.50;;;86.60;;
23995;SDS011;12207;50.076;8.848;2023-08-31T05:04:18;378.90;;;85.57;;
23995;SDS011;12207;50.076;8.848;2023-08-31T05:06:44;383.17;;;88.75;;
23995;SDS011;12207;50.076;8.848;2023-08-31T05:09:10;378.08;;;85.50;;
23995;SDS011;12207;50.076;8.848;2023-08-31T05:11:36;386.02;;;85.43;;
23995;SDS011;12207;50.076;8.848;2023-08-31T05:14:02;385.83;;;86.13;;
23995;SDS011;12207;50.076;8.848;2023-08-31T05:16:28;391.98;;;86.10;;
23995;SDS011;12207;50.076;8.848;2023-08-31T05:18:54;385.58;;;87.03;;
23995;SDS011;12207;50.076;8.848;2023-08-31T05:21:20;383.90;;;86.63;;
23995;SDS011;12207;50.076;8.848;2023-08-31T05:23:46;395.27;;;87.82;;
23995;SDS011;12207;50.076;8.848;2023-08-31T05:26:13;378.45;;;85.03;;
23995;SDS011;12207;50.076;8.848;2023-08-31T05:28:40;379.83;;;86.07;;
23995;SDS011;12207;50.076;8.848;2023-08-31T05:31:08;394.30;;;86.63;;
23995;SDS011;12207;50.076;8.848;2023-08-31T05:33:34;393.48;;;89.55;;
23995;SDS011;12207;50.076;8.848;2023-08-31T05:36:01;373.05;;;86.35;;
23995;SDS011;12207;50.076;8.848;2023-08-31T05:38:29;377.50;;;87.38;;
23995;SDS011;12207;50.076;8.848;2023-08-31T05:41:02;391.15;;;91.68;;
23995;SDS011;12207;50.076;8.848;2023-08-31T05:43:33;393.92;;;92.00;;
23995;SDS011;12207;50.076;8.848;2023-08-31T05:45:59;387.90;;;90.78;;
23995;SDS011;12207;50.076;8.848;2023-08-31T05:48:26;396.60;;;94.85;;
23995;SDS011;12207;50.076;8.848;2023-08-31T05:50:52;388.15;;;93.30;;
23995;SDS011;12207;50.076;8.848;2023-08-31T05:53:18;386.35;;;94.95;;
23995;SDS011;12207;50.076;8.848;2023-08-31T05:55:44;393.27;;;97.53;;
23995;SDS011;12207;50.076;8.848;2023-08-31T05:58:11;392.85;;;98.85;;
23995;SDS011;12207;50.076;8.848;2023-08-31T06:00:37;394.30;;;97.47;;
23995;SDS011;12207;50.076;8.848;2023-08-31T06:03:06;397.10;;;95.15;;
23995;SDS011;12207;50.076;8.848;2023-08-31T06:05:32;383.92;;;96.57;;
23995;SDS011;12207;50.076;8.848;2023-08-31T06:07:59;383.77;;;96.20;;
23995;SDS011;12207;50.076;8.848;2023-08-31T06:10:25;393.20;;;95.13;;
23995;SDS011;12207;50.076;8.848;2023-08-31T06:12:51;387.63;;;94.85;;
23995;SDS011;12207;50.076;8.848;2023-08-31T06:15:17;409.25;;;98.85;;
23995;SDS011;12207;50.076;8.848;2023-08-31T06:17:43;404.50;;;97.15;;
23995;SDS011;12207;50.076;8.848;2023-08-31T06:20:10;390.30;;;95.55;;
23995;SDS011;12207;50.076;8.848;2023-08-31T06:22:39;411.27;;;101.80;;
23995;SDS011;12207;50.076;8.848;2023-08-31T06:25:05;399.05;;;98.60;;
23995;SDS011;12207;50.076;8.848;2023-08-31T06:27:33;387.92;;;98.53;;
23995;SDS011;12207;50.076;8.848;2023-08-31T06:30:00;403.80;;;100.88;;
23995;SDS011;12207;50.076;8.848;2023-08-31T06:32:26;398.95;;;100.80;;
23995;SDS011;12207;50.076;8.848;2023-08-31T06:34:52;403.73;;;98.75;;
23995;SDS011;12207;50.076;8.848;2023-08-31T06:37:18;403.52;;;96.68;;
23995;SDS011;12207;50.076;8.848;2023-08-31T06:39:45;396.88;;;97.18;;
23995;SDS011;12207;50.076;8.848;2023-08-31T06:42:11;384.50;;;93.60;;
23995;SDS011;12207;50.076;8.848;2023-08-31T06:44:37;401.75;;;96.97;;
23995;SDS011;12207;50.076;8.848;2023-08-31T06:47:03;381.75;;;97.85;;
23995;SDS011;12207;50.076;8.848;2023-08-31T06:49:29;398.38;;;98.30;;
23995;SDS011;12207;50.076;8.848;2023-08-31T06:51:58;405.42;;;97.55;;
23995;SDS011;12207;50.076;8.848;2023-08-31T06:54:25;401.33;;;97.85;;
23995;SDS011;12207;50.076;8.848;2023-08-31T06:56:51;399.45;;;97.68;;
23995;SDS011;12207;50.076;8.848;2023-08-31T06:59:17;393.27;;;94.68;;
23995;SDS011;12207;50.076;8.848;2023-08-31T07:01:43;397.75;;;98.90;;
23995;SDS011;12207;50.076;8.848;2023-08-31T07:04:09;398.00;;;98.75;;
23995;SDS011;12207;50.076;8.848;2023-08-31T07:06:35;393.65;;;95.82;;
23995;SDS011;12207;50.076;8.848;2023-08-31T07:09:01;398.40;;;99.45;;
23995;SDS011;12207;50.076;8.848;2023-08-31T07:11:31;406.23;;;99.80;;
23995;SDS011;12207;50.076;8.848;2023-08-31T07:13:57;395.52;;;98.45;;
23995;SDS011;12207;50.076;8.848;2023-08-31T07:16:24;416.45;;;100.38;;
23995;SDS011;12207;50.076;8.848;2023-08-31T07:18:50;404.98;;;97.95;;
23995;SDS011;12207;50.076;8.848;2023-08-31T07:21:17;392.83;;;99.05;;
23995;SDS011;12207;50.076;8.848;2023-08-31T07:23:43;393.60;;;98.28;;
23995;SDS011;12207;50.076;8.848;2023-08-31T07:26:09;397.73;;;96.70;;
23995;SDS011;12207;50.076;8.848;2023-08-31T07:28:38;397.45;;;97.38;;
23995;SDS011;12207;50.076;8.848;2023-08-31T07:31:05;399.52;;;99.18;;
23995;SDS011;12207;50.076;8.848;2023-08-31T07:33:32;398.67;;;99.47;;
23995;SDS011;12207;50.076;8.848;2023-08-31T07:36:00;392.92;;;97.32;;
23995;SDS011;12207;50.076;8.848;2023-08-31T07:38:29;395.02;;;95.53;;
23995;SDS011;12207;50.076;8.848;2023-08-31T07:40:56;390.90;;;95.22;;
23995;SDS011;12207;50.076;8.848;2023-08-31T07:43:22;383.38;;;93.88;;
23995;SDS011;12207;50.076;8.848;2023-08-31T07:45:52;391.05;;;94.32;;
23995;SDS011;12207;50.076;8.848;2023-08-31T07:48:18;398.92;;;97.03;;
23995;SDS011;12207;50.076;8.848;2023-08-31T07:50:45;401.88;;;96.60;;
23995;SDS011;12207;50.076;8.848;2023-08-31T07:53:11;393.50;;;96.50;;
23995;SDS011;12207;50.076;8.848;2023-08-31T07:55:38;396.30;;;96.13;;
23995;SDS011;12207;50.076;8.848;2023-08-31T07:58:04;391.88;;;95.68;;
23995;SDS011;12207;50.076;8.848;2023-08-31T08:00:31;388.73;;;96.15;;
23995;SDS011;12207;50.076;8.848;2023-08-31T08:02:57;392.58;;;96.68;;
23995;SDS011;12207;50.076;8.848;2023-08-31T08:05:23;388.70;;;95.15;;
23995;SDS011;12207;50.076;8.848;2023-08-31T08:07:49;402.05;;;96.10;;
23995;SDS011;12207;50.076;8.848;2023-08-31T08:10:16;396.85;;;96.78;;
23995;SDS011;12207;50.076;8.848;2023-08-31T08:12:44;385.15;;;93.63;;
23995;SDS011;12207;50.076;8.848;2023-08-31T08:15:11;392.00;;;96.45;;
23995;SDS011;12207;50.076;8.848;2023-08-31T08:17:37;396.75;;;98.82;;
23995;SDS011;12207;50.076;8.848;2023-08-31T08:20:10;393.90;;;98.25;;
23995;SDS011;12207;50.076;8.848;2023-08-31T08:22:36;387.73;;;97.85;;
23995;SDS011;12207;50.076;8.848;2023-08-31T08:25:02;404.92;;;101.68;;
23995;SDS011;12207;50.076;8.848;2023-08-31T08:27:29;404.38;;;100.10;;
23995;SDS011;12207;50.076;8.848;2023-08-31T08:29:56;404.95;;;104.43;;
23995;SDS011;12207;50.076;8.848;2023-08-31T08:32:22;403.85;;;102.05;;
23995;SDS011;12207;50.076;8.848;2023-08-31T08:34:49;403.17;;;99.25;;
23995;SDS011;12207;50.076;8.848;2023-08-31T08:37:16;410.73;;;104.53;;
23995;SDS011;12207;50.076;8.848;2023-08-31T08:39:42;409.33;;;104.03;;
23995;SDS011;12207;50.076;8.848;2023-08-31T08:42:09;393.67;;;102.30;;
23995;SDS011;12207;50.076;8.848;2023-08-31T08:44:36;411.00;;;103.53;;
23995;SDS011;12207;50.076;8.848;2023-08-31T08:47:02;397.38;;;103.20;;
23995;SDS011;12207;50.076;8.848;2023-08-31T08:49:30;400.13;;;105.72;;
23995;SDS011;12207;50.076;8.848;2023-08-31T08:51:57;402.15;;;105.00;;
23995;SDS011;12207;50.076;8.848;2023-08-31T08:54:24;401.30;;;103.00;;
23995;SDS011;12207;50.076;8.848;2023-08-31T08:56:52;392.00;;;99.95;;
23995;SDS011;12207;50.076;8.848;2023-08-31T08:59:18;404.55;;;105.15;;
23995;SDS011;12207;50.076;8.848;2023-08-31T09:01:45;409.73;;;106.60;;
23995;SDS011;12207;50.076;8.848;2023-08-31T09:04:12;395.38;;;105.88;;
23995;SDS011;12207;50.076;8.848;2023-08-31T09:06:38;403.35;;;110.28;;
23995;SDS011;12207;50.076;8.848;2023-08-31T09:09:05;416.30;;;107.60;;
23995;SDS011;12207;50.076;8.848;2023-08-31T09:11:34;399.65;;;109.32;;
23995;SDS011;12207;50.076;8.848;2023-08-31T09:14:13;421.42;;;109.38;;
23995;SDS011;12207;50.076;8.848;2023-08-31T09:16:46;405.70;;;109.57;;
23995;SDS011;12207;50.076;8.848;2023-08-31T09:19:24;415.73;;;112.18;;
23995;SDS011;12207;50.076;8.848;2023-08-31T09:21:55;403.67;;;108.88;;
23995;SDS011;12207;50.076;8.848;2023-08-31T09:24:22;413.92;;;113.82;;
23995;SDS011;12207;50.076;8.848;2023-08-31T09:26:52;407.40;;;110.15;;
23995;SDS011;12207;50.076;8.848;2023-08-31T09:29:20;408.10;;;110.32;;
23995;SDS011;12207;50.076;8.848;2023-08-31T09:31:46;401.55;;;106.78;;
23995;SDS011;12207;50.076;8.848;2023-08-31T09:34:13;399.90;;;104.53;;
23995;SDS011;12207;50.076;8.848;2023-08-31T09:36:40;405.55;;;106.70;;
23995;SDS011;12207;50.076;8.848;2023-08-31T09:39:07;409.25;;;106.65;;
23995;SDS011;12207;50.076;8.848;2023-08-31T09:41:34;415.27;;;107.78;;
23995;SDS011;12207;50.076;8.848;2023-08-31T09:44:16;388.38;;;102.38;;
23995;SDS011;12207;50.076;8.848;2023-08-31T09:46:44;402.95;;;104.25;;
23995;SDS011;12207;50.076;8.848;2023-08-31T09:49:11;403.80;;;103.15;;
23995;SDS011;12207;50.076;8.848;2023-08-31T09:51:41;405.52;;;103.85;;
23995;SDS011;12207;50.076;8.848;2023-08-31T09:54:14;398.17;;;102.35;;
23995;SDS011;12207;50.076;8.848;2023-08-31T09:56:42;397.85;;;101.80;;
23995;SDS011;12207;50.076;8.848;2023-08-31T09:59:10;407.65;;;103.65;;
23995;SDS011;12207;50.076;8.848;2023-08-31T10:01:38;410.20;;;106.93;;
23995;SDS011;12207;50.076;8.848;2023-08-31T10:04:05;403.88;;;105.13;;
23995;SDS011;12207;50.076;8.848;2023-08-31T10:06:34;412.08;;;107.75;;
23995;SDS011;12207;50.076;8.848;2023-08-31T10:09:03;406.90;;;110.93;;
23995;SDS011;12207;50.076;8.848;2023-08-31T10:11:30;408.50;;;110.47;;
23995;SDS011;12207;50.076;8.848;2023-08-31T10:13:57;413.73;;;113.20;;
23995;SDS011;12207;50.076;8.848;2023-08-31T10:16:27;415.60;;;111.72;;
23995;SDS011;12207;50.076;8.848;2023-08-31T10:18:54;416.42;;;114.15;;
23995;SDS011;12207;50.076;8.848;2023-08-31T10:21:21;422.50;;;113.47;;
23995;SDS011;12207;50.076;8.848;2023-08-31T10:23:50;414.25;;;112.47;;
23995;SDS011;12207;50.076;8.848;2023-08-31T10:28:52;400.33;;;106.57;;
23995;SDS011;12207;50.076;8.848;2023-08-31T10:31:18;405.13;;;109.18;;
23995;SDS011;12207;50.076;8.848;2023-08-31T10:34:03;416.25;;;109.05;;
23995;SDS011;12207;50.076;8.848;2023-08-31T10:36:37;427.73;;;110.30;;
23995;SDS011;12207;50.076;8.848;2023-08-31T10:39:14;413.20;;;108.22;;
23995;SDS011;12207;50.076;8.848;2023-08-31T10:41:42;416.95;;;112.00;;
23995;SDS011;12207;50.076;8.848;2023-08-31T10:44:19;411.50;;;108.80;;
23995;SDS011;12207;50.076;8.848;2023-08-31T10:46:50;400.20;;;109.75;;
23995;SDS011;12207;50.076;8.848;2023-08-31T10:49:18;403.58;;;111.00;;
23995;SDS011;12207;50.076;8.848;2023-08-31T10:51:46;412.70;;;113.20;;
23995;SDS011;12207;50.076;8.848;2023-08-31T10:54:20;410.85;;;111.22;;
23995;SDS011;12207;50.076;8.848;2023-08-31T11:05:08;417.63;;;113.15;;
23995;SDS011;12207;50.076;8.848;2023-08-31T11:07:36;409.50;;;115.10;;
23995;SDS011;12207;50.076;8.848;2023-08-31T11:12:32;417.10;;;114.47;;
23995;SDS011;12207;50.076;8.848;2023-08-31T11:14:58;410.85;;;113.15;;
23995;SDS011;12207;50.076;8.848;2023-08-31T11:17:24;412.67;;;111.47;;
23995;SDS011;12207;50.076;8.848;2023-08-31T11:19:52;404.50;;;116.35;;
23995;SDS011;12207;50.076;8.848;2023-08-31T11:22:18;411.40;;;113.75;;
23995;SDS011;12207;50.076;8.848;2023-08-31T11:24:45;416.33;;;115.38;;
23995;SDS011;12207;50.076;8.848;2023-08-31T11:27:12;403.05;;;118.70;;
23995;SDS011;12207;50.076;8.848;2023-08-31T11:29:42;405.75;;;113.70;;
23995;SDS011;12207;50.076;8.848;2023-08-31T11:32:09;421.10;;;117.40;;
23995;SDS011;12207;50.076;8.848;2023-08-31T11:34:39;397.45;;;115.72;;
23995;SDS011;12207;50.076;8.848;2023-08-31T11:37:07;396.98;;;110.40;;
23995;SDS011;12207;50.076;8.848;2023-08-31T11:39:37;406.23;;;110.80;;
23995;SDS011;12207;50.076;8.848;2023-08-31T11:42:04;410.45;;;115.38;;
23995;SDS011;12207;50.076;8.848;2023-08-31T11:44:31;404.67;;;111.35;;
23995;SDS011;12207;50.076;8.848;2023-08-31T11:46:57;405.25;;;112.30;;
23995;SDS011;12207;50.076;8.848;2023-08-31T11:49:24;401.30;;;111.88;;
23995;SDS011;12207;50.076;8.848;2023-08-31T11:51:53;404.38;;;110.20;;
23995;SDS011;12207;50.076;8.848;2023-08-31T11:54:20;406.98;;;109.85;;
23995;SDS011;12207;50.076;8.848;2023-08-31T11:56:49;411.27;;;114.65;;
23995;SDS011;12207;50.076;8.848;2023-08-31T11:59:16;398.90;;;108.82;;
23995;SDS011;12207;50.076;8.848;2023-08-31T12:01:44;400.45;;;109.82;;
23995;SDS011;12207;50.076;8.848;2023-08-31T12:04:13;416.20;;;111.85;;
23995;SDS011;12207;50.076;8.848;2023-08-31T12:06:49;413.98;;;112.20;;
23995;SDS011;12207;50.076;8.848;2023-08-31T12:09:17;396.00;;;106.50;;
23995;SDS011;12207;50.076;8.848;2023-08-31T12:11:52;413.85;;;107.10;;
23995;SDS011;12207;50.076;8.848;2023-08-31T12:14:20;415.95;;;108.15;;
23995;SDS011;12207;50.076;8.848;2023-08-31T12:16:47;413.05;;;106.88;;
23995;SDS011;12207;50.076;8.848;2023-08-31T12:19:14;400.27;;;107.30;;
23995;SDS011;12207;50.076;8.848;2023-08-31T12:21:44;407.33;;;107.40;;
23995;SDS011;12207;50.076;8.848;2023-08-31T12:24:11;407.60;;;106.72;;
23995;SDS011;12207;50.076;8.848;2023-08-31T12:26:38;394.25;;;103.88;;
23995;SDS011;12207;50.076;8.848;2023-08-31T12:29:07;391.15;;;104.00;;
23995;SDS011;12207;50.076;8.848;2023-08-31T12:31:33;412.00;;;107.15;;
23995;SDS011;12207;50.076;8.848;2023-08-31T12:34:01;409.92;;;107.85;;
23995;SDS011;12207;50.076;8.848;2023-08-31T12:36:31;415.27;;;107.00;;
23995;SDS011;12207;50.076;8.848;2023-08-31T12:39:01;408.80;;;105.38;;
23995;SDS011;12207;50.076;8.848;2023-08-31T12:41:31;408.40;;;104.18;;
23995;SDS011;12207;50.076;8.848;2023-08-31T12:43:57;411.42;;;108.32;;
23995;SDS011;12207;50.076;8.848;2023-08-31T12:46:24;412.30;;;103.15;;
23995;SDS011;12207;50.076;8.848;2023-08-31T12:48:51;407.13;;;103.97;;
23995;SDS011;12207;50.076;8.848;2023-08-31T12:51:20;404.65;;;104.68;;
23995;SDS011;12207;50.076;8.848;2023-08-31T12:53:47;399.13;;;103.63;;
23995;SDS011;12207;50.076;8.848;2023-08-31T12:56:13;398.95;;;100.00;;
23995;SDS011;12207;50.076;8.848;2023-08-31T12:58:46;394.42;;;102.10;;
23995;SDS011;12207;50.076;8.848;2023-08-31T13:01:19;400.33;;;103.15;;
23995;SDS011;12207;50.076;8.848;2023-08-31T13:03:46;404.08;;;103.32;;
23995;SDS011;12207;50.076;8.848;2023-08-31T13:06:13;417.60;;;105.20;;
23995;SDS011;12207;50.076;8.848;2023-08-31T13:08:41;400.95;;;102.88;;
23995;SDS011;12207;50.076;8.848;2023-08-31T13:11:09;413.55;;;104.55;;
23995;SDS011;12207;50.076;8.848;2023-08-31T13:13:40;416.63;;;109.55;;
23995;SDS011;12207;50.076;8.848;2023-08-31T13:16:06;410.42;;;107.93;;
23995;SDS011;12207;50.076;8.848;2023-08-31T13:18:34;406.10;;;108.10;;
23995;SDS011;12207;50.076;8.848;2023-08-31T13:21:03;415.35;;;109.65;;
23995;SDS011;12207;50.076;8.848;2023-08-31T13:23:29;416.70;;;109.70;;
23995;SDS011;12207;50.076;8.848;2023-08-31T13:25:55;406.45;;;107.78;;
23995;SDS011;12207;50.076;8.848;2023-08-31T13:28:21;412.83;;;111.47;;
23995;SDS011;12207;50.076;8.848;2023-08-31T13:30:48;406.63;;;110.72;;
23995;SDS011;12207;50.076;8.848;2023-08-31T13:33:14;396.20;;;111.82;;
23995;SDS011;12207;50.076;8.848;2023-08-31T13:35:40;424.42;;;118.53;;
23995;SDS011;12207;50.076;8.848;2023-08-31T13:38:07;402.20;;;115.60;;
23995;SDS011;12207;50.076;8.848;2023-08-31T13:40:33;416.10;;;121.00;;
23995;SDS011;12207;50.076;8.848;2023-08-31T13:43:01;417.67;;;121.25;;
23995;SDS011;12207;50.076;8.848;2023-08-31T13:45:30;415.27;;;126.13;;
23995;SDS011;12207;50.076;8.848;2023-08-31T13:47:57;412.63;;;122.90;;
23995;SDS011;12207;50.076;8.848;2023-08-31T13:50:29;415.60;;;120.20;;
23995;SDS011;12207;50.076;8.848;2023-08-31T13:52:55;416.52;;;123.07;;
23995;SDS011;12207;50.076;8.848;2023-08-31T13:55:21;430.98;;;127.72;;
23995;SDS011;12207;50.076;8.848;2023-08-31T13:57:48;430.08;;;119.93;;
23995;SDS011;12207;50.076;8.848;2023-08-31T14:00:15;414.70;;;121.82;;
23995;SDS011;12207;50.076;8.848;2023-08-31T14:02:42;406.55;;;117.78;;
23995;SDS011;12207;50.076;8.848;2023-08-31T14:05:08;409.40;;;117.53;;
23995;SDS011;12207;50.076;8.848;2023-08-31T14:07:35;401.50;;;119.82;;
23995;SDS011;12207;50.076;8.848;2023-08-31T14:10:02;406.67;;;115.35;;
23995;SDS011;12207;50.076;8.848;2023-08-31T14:12:32;415.50;;;114.45;;
23995;SDS011;12207;50.076;8.848;2023-08-31T14:14:59;413.85;;;116.95;;
23995;SDS011;12207;50.076;8.848;2023-08-31T14:17:29;401.38;;;117.55;;
23995;SDS011;12207;50.076;8.848;2023-08-31T14:19:56;414.48;;;119.30;;
23995;SDS011;12207;50.076;8.848;2023-08-31T14:22:25;413.02;;;117.05;;